HorshamWeather.Com Historical Data
 
Daily Summary for July 28, 2014 Units:  English    Metric   Both
« Previous Day
Next Day »
Daily Weekly Monthly Yearly Custom
  Current: High: Low: Average:
Temperature: 69.5 °F 82.0 °F 66.8 °F 74.4 °F
Dew Point: 61.2 °F 70.4 °F 59.4 °F 65.2 °F
Humidity: 75% 97% 50% 76%
Wind Speed: 2.0mph 10.0mph 1.0mph 2.4mph
Wind Gust: 5.0mph 14.0mph - -
WindWSW - - SW
Pressure: 29.69 in 29.69 in 29.53 in -
Precipitation: 0.56 in      
Historical Graphs
 
 
Tabular Data for July 28, 2014
Time Temperature Dew Point Pressure Wind Wind Speed Wind Gust Humidity Rainfall Rate (Hourly)
00:01 68.3 °F 66.2 °F 29.65 in SE 2.0 mph 3.0 mph 93% 0.44 in
00:06 68.1 °F 66.3 °F 29.63 in Calm   7.0 mph 94% 0.65 in
00:11 68.2 °F 66.7 °F 29.65 in SSE 2.0 mph 4.0 mph 95% 0.64 in
00:16 68.3 °F 66.8 °F 29.64 in SSE 2.0 mph 4.0 mph 95% 0.65 in
00:21 68.3 °F 66.8 °F 29.63 in South 1.0 mph 7.0 mph 95% 0.63 in
00:26 68.1 °F 66.6 °F 29.62 in SSE 2.0 mph 4.0 mph 95% 0.60 in
00:31 68.1 °F 66.6 °F 29.62 in SSE 1.0 mph 1.0 mph 95% 0.60 in
00:36 68.1 °F 66.6 °F 29.62 in SSE 1.0 mph 1.0 mph 95% 0.55 in
00:41 68.1 °F 66.6 °F 29.62 in South 2.0 mph 5.0 mph 95% 0.51 in
00:46 68.1 °F 66.6 °F 29.61 in Calm   4.0 mph 95% 0.49 in
00:51 68.0 °F 66.8 °F 29.60 in Calm   1.0 mph 96% 0.48 in
00:56 68.0 °F 66.8 °F 29.60 in Calm   1.0 mph 96% 0.42 in
01:01 68.0 °F 66.8 °F 29.61 in South 1.0 mph 1.0 mph 96% 0.28 in
01:06 68.0 °F 66.8 °F 29.61 in South 1.0 mph 1.0 mph 96% 0.03 in
01:11 68.0 °F 66.8 °F 29.61 in SSW 1.0 mph 4.0 mph 96% 0.02 in
01:16 68.1 °F 66.9 °F 29.60 in Calm   1.0 mph 96% 0.01 in
01:21 68.1 °F 66.9 °F 29.60 in Calm     96% 0.01 in
01:26 68.1 °F 66.9 °F 29.59 in Calm   1.0 mph 96% 0.01 in
01:31 68.1 °F 66.9 °F 29.59 in Calm   1.0 mph 96% 0.01 in
01:36 68.2 °F 67.0 °F 29.59 in South 2.0 mph 2.0 mph 96% 0.01 in
01:41 68.2 °F 67.0 °F 29.60 in SSE 1.0 mph 2.0 mph 96% 0.01 in
01:46 68.3 °F 67.1 °F 29.61 in WSW 1.0 mph 1.0 mph 96% 0.01 in
01:51 68.4 °F 67.5 °F 29.61 in South 1.0 mph 4.0 mph 97% 0.03 in
01:56 68.5 °F 67.6 °F 29.59 in South 4.0 mph 7.0 mph 97% 0.04 in
02:01 68.6 °F 67.7 °F 29.59 in SSE 3.0 mph 6.0 mph 97% 0.17 in
02:06 68.7 °F 67.8 °F 29.59 in South 4.0 mph 7.0 mph 97% 0.21 in
02:11 68.8 °F 67.9 °F 29.59 in ESE 4.0 mph 9.0 mph 97% 0.22 in
02:16 68.8 °F 67.6 °F 29.59 in SSE 2.0 mph 4.0 mph 96% 0.22 in
02:21 68.6 °F 67.4 °F 29.60 in SSW 1.0 mph 5.0 mph 96% 0.23 in
02:26 68.5 °F 67.3 °F 29.59 in SE 2.0 mph 9.0 mph 96% 0.24 in
02:31 68.3 °F 67.1 °F 29.59 in Calm   4.0 mph 96% 0.25 in
02:36 68.2 °F 67.0 °F 29.59 in SW 1.0 mph 3.0 mph 96% 0.25 in
02:41 68.1 °F 66.9 °F 29.59 in SSW 1.0 mph 3.0 mph 96% 0.26 in
02:46 67.9 °F 66.7 °F 29.58 in SSE 2.0 mph 4.0 mph 96% 0.26 in
02:51 67.9 °F 66.7 °F 29.57 in South 2.0 mph 2.0 mph 96% 0.26 in
02:56 67.8 °F 66.6 °F 29.57 in South 2.0 mph 4.0 mph 96% 0.24 in
03:01 67.8 °F 66.6 °F 29.56 in Calm   2.0 mph 96% 0.15 in
03:06 67.8 °F 66.6 °F 29.56 in Calm   1.0 mph 96% 0.08 in
03:11 67.8 °F 66.6 °F 29.56 in SW 1.0 mph 2.0 mph 96% 0.06 in
03:16 67.9 °F 67.0 °F 29.55 in Calm   1.0 mph 97% 0.06 in
03:21 67.9 °F 67.0 °F 29.55 in SSW 2.0 mph 2.0 mph 97% 0.05 in
03:26 67.9 °F 67.0 °F 29.55 in South 1.0 mph 2.0 mph 97% 0.04 in
03:31 68.0 °F 67.1 °F 29.56 in SSW 1.0 mph 3.0 mph 97% 0.03 in
03:36 68.0 °F 67.1 °F 29.56 in Calm   1.0 mph 97% 0.02 in
03:41 68.1 °F 67.2 °F 29.55 in Calm     97% 0.01 in
03:46 68.1 °F 67.2 °F 29.55 in Calm   1.0 mph 97% 0.01 in
03:51 68.1 °F 67.2 °F 29.56 in South 1.0 mph 3.0 mph 97% 0.00 in
03:56 68.1 °F 67.2 °F 29.55 in South 1.0 mph 3.0 mph 97% 0.00 in
04:01 68.1 °F 67.2 °F 29.55 in SSE 1.0 mph 1.0 mph 97% 0.00 in
04:06 68.1 °F 67.2 °F 29.55 in ESE 2.0 mph 4.0 mph 97% 0.00 in
04:11 68.1 °F 67.2 °F 29.55 in South 2.0 mph 4.0 mph 97% 0.00 in
04:16 68.1 °F 67.2 °F 29.54 in SSE 4.0 mph 5.0 mph 97% 0.00 in
04:21 68.1 °F 67.2 °F 29.55 in SSW 1.0 mph 5.0 mph 97% 0.00 in
04:26 68.0 °F 67.1 °F 29.55 in SSE 2.0 mph 3.0 mph 97% 0.00 in
04:31 67.9 °F 67.0 °F 29.54 in SE 2.0 mph 2.0 mph 97% 0.00 in
04:36 67.8 °F 66.9 °F 29.54 in Calm   2.0 mph 97% 0.00 in
04:41 67.7 °F 66.8 °F 29.54 in SSE 2.0 mph 4.0 mph 97% 0.00 in
04:46 67.6 °F 66.4 °F 29.54 in Calm   1.0 mph 96% 0.00 in
04:51 67.6 °F 66.4 °F 29.54 in Calm     96% 0.00 in
04:56 67.5 °F 66.3 °F 29.53 in Calm   1.0 mph 96% 0.00 in
05:01 67.4 °F 66.2 °F 29.53 in Calm   1.0 mph 96% 0.00 in
05:06 67.3 °F 66.1 °F 29.53 in Calm     96% 0.00 in
05:11 67.2 °F 66.3 °F 29.53 in South 1.0 mph 1.0 mph 97% 0.00 in
05:16 67.1 °F 66.2 °F 29.53 in Calm   1.0 mph 97% 0.00 in
05:21 67.0 °F 66.1 °F 29.53 in Calm   1.0 mph 97% 0.00 in
05:26 67.0 °F 66.1 °F 29.53 in Calm   1.0 mph 97% 0.00 in
05:31 67.0 °F 66.1 °F 29.54 in Calm   1.0 mph 97% 0.00 in
05:36 66.9 °F 66.0 °F 29.54 in Calm   2.0 mph 97% 0.00 in
05:41 66.8 °F 65.9 °F 29.54 in Calm     97% 0.00 in
08:41 70.3 °F 69.4 °F 29.57 in Calm   2.0 mph 97% 0.00 in
08:46 70.6 °F 69.7 °F 29.57 in West 1.0 mph 3.0 mph 97% 0.00 in
08:51 70.4 °F 68.9 °F 29.57 in Calm   2.0 mph 95% 0.00 in
08:56 70.3 °F 68.8 °F 29.57 in WSW 1.0 mph 2.0 mph 95% 0.00 in
09:01 70.3 °F 68.5 °F 29.57 in West 1.0 mph 3.0 mph 94% 0.00 in
09:06 71.0 °F 69.8 °F 29.58 in SE 1.0 mph 3.0 mph 96% 0.00 in
09:11 71.5 °F 69.7 °F 29.58 in WNW 2.0 mph 2.0 mph 94% 0.00 in
09:16 71.8 °F 69.3 °F 29.58 in East 2.0 mph 3.0 mph 92% 0.00 in
09:21 72.1 °F 70.0 °F 29.58 in WSW 1.0 mph 2.0 mph 93% 0.00 in
09:26 72.6 °F 69.8 °F 29.58 in Calm   1.0 mph 91% 0.00 in
09:31 73.1 °F 70.3 °F 29.58 in WSW 1.0 mph 5.0 mph 91% 0.00 in
09:36 73.2 °F 69.1 °F 29.58 in WSW 1.0 mph 4.0 mph 87% 0.00 in
09:41 73.1 °F 69.3 °F 29.58 in SW 1.0 mph 7.0 mph 88% 0.00 in
09:46 73.5 °F 69.7 °F 29.58 in West 2.0 mph 3.0 mph 88% 0.00 in
09:51 74.0 °F 69.9 °F 29.58 in SW 3.0 mph 7.0 mph 87% 0.00 in
09:56 74.5 °F 70.4 °F 29.58 in NNE 1.0 mph 4.0 mph 87% 0.00 in
10:01 75.2 °F 70.0 °F 29.58 in NW 3.0 mph 4.0 mph 84% 0.00 in
10:06 75.5 °F 69.6 °F 29.58 in WSW 2.0 mph 4.0 mph 82% 0.00 in
10:11 75.2 °F 69.3 °F 29.58 in Calm   3.0 mph 82% 0.00 in
10:16 74.9 °F 70.1 °F 29.58 in SW 3.0 mph 4.0 mph 85% 0.00 in
10:21 75.0 °F 69.5 °F 29.59 in South 4.0 mph 5.0 mph 83% 0.00 in
10:26 75.4 °F 69.9 °F 29.59 in SSW 3.0 mph 5.0 mph 83% 0.00 in
10:31 75.3 °F 69.1 °F 29.59 in Calm   4.0 mph 81% 0.00 in
10:36 74.9 °F 69.0 °F 29.59 in Calm   4.0 mph 82% 0.00 in
10:41 74.8 °F 68.9 °F 29.58 in North 2.0 mph 2.0 mph 82% 0.00 in
10:46 74.6 °F 69.1 °F 29.59 in SW 1.0 mph 1.0 mph 83% 0.00 in
10:51 74.4 °F 68.6 °F 29.59 in SSW 4.0 mph 5.0 mph 82% 0.00 in
10:56 74.3 °F 68.4 °F 29.59 in NNW 1.0 mph 3.0 mph 82% 0.00 in
11:01 74.0 °F 68.2 °F 29.59 in SW 2.0 mph 4.0 mph 82% 0.00 in
11:06 73.9 °F 68.4 °F 29.59 in NE 1.0 mph 3.0 mph 83% 0.00 in
11:11 73.9 °F 68.4 °F 29.59 in East 3.0 mph 3.0 mph 83% 0.00 in
11:16 74.3 °F 69.2 °F 29.59 in WNW 4.0 mph 4.0 mph 84% 0.00 in
11:21 75.6 °F 70.1 °F 29.59 in NNE 3.0 mph 4.0 mph 83% 0.00 in
11:26 76.7 °F 68.6 °F 29.59 in WNW 7.0 mph 7.0 mph 76% 0.00 in
11:31 77.8 °F 68.9 °F 29.59 in NW 4.0 mph 8.0 mph 74% 0.00 in
11:36 78.3 °F 68.5 °F 29.59 in SSW 1.0 mph 6.0 mph 72% 0.00 in
11:41 78.5 °F 68.3 °F 29.59 in NNE 2.0 mph 4.0 mph 71% 0.00 in
11:46 79.0 °F 68.4 °F 29.59 in WSW 2.0 mph 10.0 mph 70% 0.00 in
11:51 79.5 °F 68.0 °F 29.58 in SSE 1.0 mph 5.0 mph 68% 0.00 in
11:56 79.8 °F 65.6 °F 29.58 in West 2.0 mph 6.0 mph 62% 0.00 in
12:01 79.9 °F 67.1 °F 29.58 in West 1.0 mph 3.0 mph 65% 0.00 in
12:06 80.3 °F 68.8 °F 29.58 in NNW 8.0 mph 8.0 mph 68% 0.00 in
12:11 80.3 °F 66.1 °F 29.58 in NW 5.0 mph 7.0 mph 62% 0.00 in
12:16 80.2 °F 66.0 °F 29.58 in North 4.0 mph 7.0 mph 62% 0.00 in
12:21 80.5 °F 66.3 °F 29.58 in West 2.0 mph 5.0 mph 62% 0.00 in
12:26 81.1 °F 68.7 °F 29.58 in NNE 1.0 mph 4.0 mph 66% 0.00 in
12:31 81.7 °F 67.9 °F 29.58 in SSE 4.0 mph 4.0 mph 63% 0.00 in
12:36 82.0 °F 67.2 °F 29.58 in WSW 4.0 mph 11.0 mph 61% 0.00 in
12:41 81.8 °F 66.1 °F 29.57 in North 8.0 mph 9.0 mph 59% 0.00 in
12:46 81.6 °F 65.9 °F 29.57 in WSW 5.0 mph 5.0 mph 59% 0.00 in
12:51 81.3 °F 65.6 °F 29.57 in NE 5.0 mph 9.0 mph 59% 0.00 in
12:56 80.4 °F 63.8 °F 29.57 in West 6.0 mph 6.0 mph 57% 0.00 in
13:01 80.1 °F 65.0 °F 29.57 in South 3.0 mph 5.0 mph 60% 0.00 in
13:06 80.4 °F 65.7 °F 29.57 in NW 2.0 mph 5.0 mph 61% 0.00 in
13:11 80.3 °F 65.2 °F 29.57 in West 3.0 mph 4.0 mph 60% 0.00 in
13:16 80.3 °F 65.6 °F 29.57 in West 7.0 mph 8.0 mph 61% 0.00 in
13:21 79.8 °F 65.6 °F 29.57 in West 2.0 mph 5.0 mph 62% 0.00 in
13:26 79.4 °F 64.8 °F 29.57 in NNW 3.0 mph 9.0 mph 61% 0.00 in
13:31 79.8 °F 65.6 °F 29.57 in WSW 4.0 mph 6.0 mph 62% 0.00 in
13:36 80.3 °F 65.2 °F 29.57 in ESE 3.0 mph 11.0 mph 60% 0.00 in
13:41 80.6 °F 66.4 °F 29.57 in NNW 2.0 mph 3.0 mph 62% 0.00 in
13:46 80.9 °F 63.8 °F 29.57 in NW 2.0 mph 6.0 mph 56% 0.00 in
13:51 81.1 °F 63.9 °F 29.57 in WSW 3.0 mph 4.0 mph 56% 0.00 in
13:56 81.4 °F 66.2 °F 29.58 in West 2.0 mph 8.0 mph 60% 0.00 in
14:01 81.5 °F 64.3 °F 29.58 in West 1.0 mph 3.0 mph 56% 0.00 in
14:06 81.3 °F 62.5 °F 29.58 in WSW 3.0 mph 8.0 mph 53% 0.00 in
14:11 81.0 °F 62.8 °F 29.58 in North 2.0 mph 4.0 mph 54% 0.00 in
14:16 80.7 °F 64.1 °F 29.58 in West 1.0 mph 2.0 mph 57% 0.00 in
14:21 80.9 °F 63.8 °F 29.57 in West 3.0 mph 6.0 mph 56% 0.00 in
14:26 81.3 °F 63.6 °F 29.58 in NW 3.0 mph 10.0 mph 55% 0.00 in
14:31 81.5 °F 63.8 °F 29.57 in WSW 4.0 mph 10.0 mph 55% 0.00 in
14:36 81.4 °F 63.2 °F 29.57 in SSE 3.0 mph 5.0 mph 54% 0.00 in
14:41 81.4 °F 65.2 °F 29.57 in NW 1.0 mph 5.0 mph 58% 0.00 in
14:46 81.4 °F 63.2 °F 29.58 in West 4.0 mph 14.0 mph 54% 0.00 in
14:51 81.1 °F 65.9 °F 29.58 in Calm   8.0 mph 60% 0.00 in
14:56 80.7 °F 63.6 °F 29.58 in WSW 2.0 mph 5.0 mph 56% 0.00 in
15:01 80.5 °F 62.3 °F 29.58 in NW 3.0 mph 8.0 mph 54% 0.00 in
15:06 80.4 °F 63.3 °F 29.58 in SSW 4.0 mph 6.0 mph 56% 0.00 in
15:11 80.5 °F 63.9 °F 29.58 in West 2.0 mph 9.0 mph 57% 0.00 in
15:16 80.5 °F 61.8 °F 29.58 in WNW 4.0 mph 8.0 mph 53% 0.00 in
15:21 80.0 °F 61.9 °F 29.58 in East 4.0 mph 7.0 mph 54% 0.00 in
15:26 80.3 °F 62.7 °F 29.58 in WNW 2.0 mph 8.0 mph 55% 0.00 in
15:31 80.4 °F 63.3 °F 29.58 in SSW 1.0 mph 2.0 mph 56% 0.00 in
15:36 80.4 °F 61.2 °F 29.58 in WNW 1.0 mph 5.0 mph 52% 0.00 in
15:41 80.5 °F 62.9 °F 29.58 in WNW 3.0 mph 7.0 mph 55% 0.00 in
15:46 80.8 °F 64.2 °F 29.58 in WNW 2.0 mph 4.0 mph 57% 0.00 in
15:51 80.9 °F 61.6 °F 29.59 in West 2.0 mph 6.0 mph 52% 0.00 in
15:56 80.8 °F 62.1 °F 29.58 in South 1.0 mph 7.0 mph 53% 0.00 in
16:01 80.7 °F 60.9 °F 29.59 in WNW 3.0 mph 12.0 mph 51% 0.00 in
16:06 80.7 °F 61.5 °F 29.58 in WSW 3.0 mph 3.0 mph 52% 0.00 in
16:12 80.2 °F 61.5 °F 29.59 in SW 1.0 mph 4.0 mph 53% 0.00 in
16:17 79.8 °F 60.6 °F 29.59 in Calm   3.0 mph 52% 0.00 in
16:22 80.0 °F 62.4 °F 29.59 in ESE 1.0 mph 7.0 mph 55% 0.00 in
16:26 80.6 °F 60.8 °F 29.59 in SW 3.0 mph 10.0 mph 51% 0.00 in
16:32 80.9 °F 61.1 °F 29.59 in SW 3.0 mph 4.0 mph 51% 0.00 in
16:37 81.0 °F 60.6 °F 29.59 in WSW 4.0 mph 4.0 mph 50% 0.00 in
16:41 80.9 °F 62.2 °F 29.60 in Calm   4.0 mph 53% 0.00 in
16:46 80.9 °F 60.5 °F 29.59 in WNW 3.0 mph 7.0 mph 50% 0.00 in
16:51 80.7 °F 60.9 °F 29.59 in WSW 3.0 mph 8.0 mph 51% 0.00 in
16:56 80.6 °F 61.9 °F 29.60 in SW 3.0 mph 10.0 mph 53% 0.00 in
17:01 80.6 °F 62.4 °F 29.60 in SW 2.0 mph 8.0 mph 54% 0.00 in
17:07 80.6 °F 62.4 °F 29.60 in NW 10.0 mph 10.0 mph 54% 0.00 in
17:12 80.3 °F 60.5 °F 29.60 in West 2.0 mph 6.0 mph 51% 0.00 in
17:17 80.0 °F 61.3 °F 29.61 in WSW 2.0 mph 3.0 mph 53% 0.00 in
17:22 79.9 °F 61.8 °F 29.61 in South 3.0 mph 8.0 mph 54% 0.00 in
17:27 79.5 °F 61.4 °F 29.61 in NW 4.0 mph 4.0 mph 54% 0.00 in
17:32 79.2 °F 61.1 °F 29.60 in NW 1.0 mph 5.0 mph 54% 0.00 in
17:37 78.8 °F 61.3 °F 29.60 in West 3.0 mph 6.0 mph 55% 0.00 in
17:42 78.7 °F 60.7 °F 29.60 in South 2.0 mph 7.0 mph 54% 0.00 in
17:47 78.6 °F 60.1 °F 29.61 in WNW 4.0 mph 12.0 mph 53% 0.00 in
17:52 78.6 °F 60.6 °F 29.61 in NW 1.0 mph 4.0 mph 54% 0.00 in
17:57 78.5 °F 59.4 °F 29.61 in SSW 1.0 mph 6.0 mph 52% 0.00 in
18:02 78.3 °F 60.3 °F 29.61 in West 4.0 mph 11.0 mph 54% 0.00 in
18:07 78.4 °F 59.9 °F 29.61 in West 1.0 mph 11.0 mph 53% 0.00 in
18:12 78.5 °F 60.0 °F 29.61 in WNW 10.0 mph 10.0 mph 53% 0.00 in
18:17 78.5 °F 60.5 °F 29.61 in WNW 2.0 mph 2.0 mph 54% 0.00 in
18:22 78.6 °F 60.6 °F 29.62 in WSW 3.0 mph 4.0 mph 54% 0.00 in
18:27 78.4 °F 60.4 °F 29.62 in WNW 3.0 mph 9.0 mph 54% 0.00 in
18:32 78.2 °F 60.7 °F 29.63 in NW 1.0 mph 4.0 mph 55% 0.00 in
18:37 77.9 °F 60.5 °F 29.63 in SSW 2.0 mph 3.0 mph 55% 0.00 in
18:42 77.6 °F 60.2 °F 29.63 in WSW 3.0 mph 8.0 mph 55% 0.00 in
18:47 77.3 °F 59.9 °F 29.63 in WSW 1.0 mph 5.0 mph 55% 0.00 in
18:52 77.1 °F 60.2 °F 29.63 in WNW 3.0 mph 8.0 mph 56% 0.00 in
18:57 77.0 °F 60.6 °F 29.64 in NW 2.0 mph 8.0 mph 57% 0.00 in
19:02 76.5 °F 61.1 °F 29.65 in WNW 4.0 mph 5.0 mph 59% 0.00 in
19:07 75.7 °F 60.8 °F 29.65 in WNW 3.0 mph 8.0 mph 60% 0.00 in
19:12 74.8 °F 61.4 °F 29.66 in WNW 3.0 mph 10.0 mph 63% 0.00 in
19:17 74.0 °F 60.6 °F 29.66 in NNW 2.0 mph 7.0 mph 63% 0.00 in
19:22 73.3 °F 60.4 °F 29.66 in North 3.0 mph 4.0 mph 64% 0.00 in
19:27 72.8 °F 60.4 °F 29.66 in NW 2.0 mph 5.0 mph 65% 0.00 in
19:32 72.4 °F 60.4 °F 29.66 in SW 2.0 mph 3.0 mph 66% 0.00 in
19:37 72.2 °F 60.7 °F 29.67 in West 2.0 mph 4.0 mph 67% 0.00 in
19:42 71.9 °F 60.8 °F 29.67 in West 2.0 mph 3.0 mph 68% 0.00 in
19:47 71.6 °F 60.9 °F 29.67 in WNW 1.0 mph 4.0 mph 69% 0.00 in
19:52 71.3 °F 61.0 °F 29.67 in WSW 4.0 mph 4.0 mph 70% 0.00 in
19:57 71.0 °F 60.3 °F 29.68 in West 2.0 mph 5.0 mph 69% 0.00 in
20:02 70.7 °F 60.8 °F 29.68 in WNW 1.0 mph 6.0 mph 71% 0.00 in
20:07 70.4 °F 60.6 °F 29.68 in SW 1.0 mph 6.0 mph 71% 0.00 in
20:12 70.2 °F 61.2 °F 29.68 in West 2.0 mph 3.0 mph 73% 0.00 in
20:17 70.0 °F 61.3 °F 29.68 in NE 1.0 mph 5.0 mph 74% 0.00 in
20:22 69.7 °F 61.0 °F 29.68 in WSW 1.0 mph 10.0 mph 74% 0.00 in
20:27 69.5 °F 61.2 °F 29.69 in WSW 2.0 mph 5.0 mph 75% 0.00 in
HorshamWeather.Com
Compliments of Weather Underground